createdAt,value
2023-05-24T00:03:31.077Z,22.11
2023-05-24T00:08:34.144Z,22.09
2023-05-24T00:13:38.377Z,22.04
2023-05-24T00:18:41.224Z,22.01
2023-05-24T00:23:43.996Z,21.98
2023-05-24T00:28:48.118Z,21.92
2023-05-24T00:33:51.056Z,21.88
2023-05-24T00:38:54.785Z,21.85
2023-05-24T00:43:58.966Z,21.83
2023-05-24T00:49:01.885Z,21.77
2023-05-24T00:54:04.947Z,21.77
2023-05-24T00:59:09.151Z,21.76
2023-05-24T01:04:12.482Z,21.73
2023-05-24T01:09:20.904Z,21.68
2023-05-24T01:14:36.707Z,21.69
2023-05-24T01:19:52.456Z,21.67
2023-05-24T01:25:02.174Z,21.67
2023-05-24T01:30:08.370Z,21.64
2023-05-24T01:35:11.202Z,21.62
2023-05-24T01:40:14.542Z,21.60
2023-05-24T01:45:23.514Z,21.57
2023-05-24T01:50:28.115Z,21.53
2023-05-24T01:55:31.026Z,21.53
2023-05-24T02:00:35.429Z,21.51
2023-05-24T02:05:39.822Z,21.49
2023-05-24T02:10:42.729Z,21.46
2023-05-24T02:15:47.784Z,21.45
2023-05-24T02:20:50.827Z,21.45
2023-05-24T02:25:53.590Z,21.43
2023-05-24T02:30:57.819Z,21.39
2023-05-24T02:36:00.703Z,21.39
2023-05-24T02:41:03.606Z,21.36
2023-05-24T02:46:07.849Z,21.34
2023-05-24T02:51:10.758Z,21.33
2023-05-24T02:56:17.277Z,21.30
2023-05-24T03:01:22.693Z,21.29
2023-05-24T03:06:27.440Z,21.25
2023-05-24T03:11:30.397Z,21.25
2023-05-24T03:16:35.511Z,21.20
2023-05-24T03:21:39.879Z,21.19
2023-05-24T03:26:42.662Z,21.17
2023-05-24T03:31:47.242Z,21.15
2023-05-24T03:36:50.390Z,21.13
2023-05-24T03:41:53.953Z,21.10
2023-05-24T03:46:58.330Z,21.09
2023-05-24T03:52:01.355Z,21.08
2023-05-24T03:57:04.323Z,21.05
2023-05-24T04:02:08.740Z,21.08
2023-05-24T04:07:13.769Z,21.07
2023-05-24T04:12:16.642Z,21.07
2023-05-24T04:17:24.857Z,21.08
2023-05-24T04:22:27.810Z,21.07
2023-05-24T04:27:31.210Z,21.08
2023-05-24T04:32:36.807Z,21.09
2023-05-24T04:37:40.843Z,21.09
2023-05-24T04:42:43.681Z,21.11
2023-05-24T04:47:47.929Z,21.10
2023-05-24T04:52:50.794Z,21.10
2023-05-24T04:57:53.649Z,21.09
2023-05-24T05:02:58.021Z,21.09
2023-05-24T05:08:00.960Z,21.10
2023-05-24T05:13:03.944Z,21.09
2023-05-24T05:18:08.212Z,21.02
2023-05-24T05:23:11.065Z,21.07
2023-05-24T05:28:13.948Z,21.04
2023-05-24T05:33:18.231Z,21.06
2023-05-24T05:38:21.223Z,21.06
2023-05-24T05:43:25.086Z,21.05
2023-05-24T05:48:29.272Z,21.07
2023-05-24T05:53:34.341Z,21.10
2023-05-24T05:58:38.924Z,21.13
2023-05-24T06:03:43.359Z,21.15
2023-05-24T06:08:46.333Z,21.18
2023-05-24T06:13:49.384Z,21.21
2023-05-24T06:19:05.425Z,21.24
2023-05-24T06:24:10.207Z,21.28
2023-05-24T06:29:13.872Z,21.29
2023-05-24T06:34:18.954Z,21.30
2023-05-24T06:39:21.794Z,21.28
2023-05-24T06:44:30.960Z,21.28
2023-05-24T06:49:35.235Z,21.29
2023-05-24T06:54:38.367Z,21.26
2023-05-24T06:59:41.313Z,21.31
2023-05-24T07:04:45.947Z,21.31
2023-05-24T07:09:48.953Z,19.63
2023-05-24T07:14:51.788Z,18.55
2023-05-24T07:19:55.974Z,18.26
2023-05-24T07:24:58.927Z,17.85
2023-05-24T07:30:01.748Z,18.28
2023-05-24T07:35:06.864Z,19.72
2023-05-24T07:40:11.544Z,20.05
2023-05-24T07:45:15.055Z,20.18
2023-05-24T07:50:20.322Z,20.31
2023-05-24T07:55:23.514Z,20.41
2023-05-24T08:00:26.993Z,20.51
2023-05-24T08:05:31.272Z,20.60
2023-05-24T08:10:34.086Z,20.71
2023-05-24T08:15:37.100Z,20.80
2023-05-24T08:20:41.548Z,20.87
2023-05-24T08:25:44.799Z,20.86
2023-05-24T08:30:48.183Z,20.89
2023-05-24T08:35:52.982Z,20.90
2023-05-24T08:40:55.944Z,20.90
2023-05-24T08:45:59.206Z,20.93
2023-05-24T08:51:04.018Z,20.95
2023-05-24T08:56:07.348Z,21.19
2023-05-24T09:01:10.760Z,21.19
2023-05-24T09:06:17.802Z,21.20
2023-05-24T09:11:21.085Z,21.21
2023-05-24T09:16:23.973Z,21.23
2023-05-24T09:21:29.446Z,21.33
2023-05-24T09:26:32.307Z,21.38
2023-05-24T09:31:35.397Z,21.36
2023-05-24T09:36:41.873Z,21.30
2023-05-24T09:41:45.062Z,21.30
2023-05-24T09:46:48.012Z,21.36
2023-05-24T09:51:53.624Z,21.42
2023-05-24T09:56:56.543Z,21.43
2023-05-24T10:02:11.583Z,21.62
2023-05-24T10:07:16.155Z,21.59
2023-05-24T10:12:23.005Z,21.54
2023-05-24T10:17:27.909Z,21.54
2023-05-24T10:22:32.359Z,21.49
2023-05-24T10:27:35.309Z,21.49
2023-05-24T10:32:39.172Z,21.53
2023-05-24T10:37:44.184Z,21.58
2023-05-24T10:42:47.151Z,21.63
2023-05-24T10:47:50.151Z,21.72
2023-05-24T10:53:00.626Z,21.79
2023-05-24T10:58:03.607Z,21.77
2023-05-24T11:03:09.143Z,21.75
2023-05-24T11:08:13.630Z,21.75
2023-05-24T11:13:16.642Z,21.86
2023-05-24T11:18:21.819Z,21.88
2023-05-24T11:23:26.113Z,21.88
2023-05-24T11:28:29.008Z,21.95
2023-05-24T11:33:32.163Z,21.99
2023-05-24T11:38:36.663Z,21.99
2023-05-24T11:43:41.283Z,22.07
2023-05-24T11:48:44.197Z,22.13
2023-05-24T11:53:48.432Z,22.16
2023-05-24T11:58:51.818Z,22.19
2023-05-24T12:03:54.938Z,22.28
2023-05-24T12:08:59.460Z,22.26
2023-05-24T12:14:02.410Z,21.21
2023-05-24T12:19:09.719Z,20.67
2023-05-24T12:24:19.451Z,20.48
2023-05-24T12:29:22.569Z,20.08
2023-05-24T12:34:25.589Z,19.57
2023-05-24T12:39:31.903Z,19.62
2023-05-24T12:44:35.822Z,19.39
2023-05-24T12:49:38.753Z,19.82
2023-05-24T12:54:43.039Z,20.13
2023-05-24T12:59:46.025Z,20.81
2023-05-24T13:04:49.324Z,21.26
2023-05-24T13:09:53.897Z,21.47
2023-05-24T13:14:56.739Z,21.44
2023-05-24T13:20:00.064Z,21.55
2023-05-24T13:25:04.611Z,21.60
2023-05-24T13:30:09.118Z,21.56
2023-05-24T13:35:12.440Z,21.61
2023-05-24T13:40:17.062Z,21.78
2023-05-24T13:45:20.530Z,22.12
2023-05-24T13:50:26.762Z,22.31
2023-05-24T13:55:31.470Z,22.08
2023-05-24T14:00:36.069Z,21.92
2023-05-24T14:05:40.060Z,21.92
2023-05-24T14:10:47.084Z,21.96
2023-05-24T14:15:50.813Z,21.90
2023-05-24T14:20:54.218Z,22.15
2023-05-24T14:25:58.720Z,22.30
2023-05-24T14:31:01.686Z,22.38
2023-05-24T14:36:04.759Z,22.59
2023-05-24T14:41:10.027Z,23.07
2023-05-24T14:46:13.361Z,23.26
2023-05-24T14:51:17.247Z,23.54
2023-05-24T14:56:21.959Z,24.27
2023-05-24T15:01:24.958Z,24.62
2023-05-24T15:06:29.866Z,25.24
2023-05-24T15:11:34.633Z,25.09
2023-05-24T15:16:37.908Z,25.66
2023-05-24T15:21:45.256Z,24.80
2023-05-24T15:26:52.254Z,25.73
2023-05-24T15:31:55.098Z,26.85
2023-05-24T15:36:58.001Z,27.33
2023-05-24T15:42:02.637Z,27.06
2023-05-24T15:47:05.869Z,28.50
2023-05-24T15:52:09.549Z,29.06
2023-05-24T15:57:14.220Z,29.26
2023-05-24T16:02:20.647Z,29.33
2023-05-24T16:07:24.288Z,29.28
2023-05-24T16:12:30.146Z,28.84
2023-05-24T16:17:33.456Z,27.62
2023-05-24T16:22:36.506Z,27.18
2023-05-24T16:27:41.042Z,26.56
2023-05-24T16:32:45.414Z,26.18
2023-05-24T16:37:49.892Z,26.02
2023-05-24T16:42:54.499Z,26.24
2023-05-24T16:47:57.530Z,26.53
2023-05-24T16:53:00.701Z,26.82
2023-05-24T16:58:05.547Z,25.80
2023-05-24T17:03:08.785Z,25.80
2023-05-24T17:08:11.803Z,25.80
2023-05-24T17:13:16.168Z,25.87
2023-05-24T17:18:19.338Z,25.70
2023-05-24T17:23:22.432Z,25.54
2023-05-24T17:28:27.811Z,25.24
2023-05-24T17:33:31.396Z,25.00
2023-05-24T17:38:34.265Z,24.74
2023-05-24T17:43:40.137Z,24.53
2023-05-24T17:48:43.650Z,24.34
2023-05-24T17:53:46.686Z,24.23
2023-05-24T17:58:51.063Z,24.04
2023-05-24T18:03:54.520Z,23.91
2023-05-24T18:08:58.027Z,23.76
2023-05-24T18:14:03.934Z,23.61
2023-05-24T18:19:09.751Z,23.50
2023-05-24T18:24:12.878Z,23.45
2023-05-24T18:29:17.461Z,23.38
2023-05-24T18:34:20.614Z,23.30
2023-05-24T18:39:23.686Z,23.25
2023-05-24T18:44:28.014Z,23.26
2023-05-24T18:49:32.504Z,23.24
2023-05-24T18:54:35.642Z,23.22
2023-05-24T18:59:39.879Z,23.18
2023-05-24T19:04:48.058Z,23.12
2023-05-24T19:09:51.315Z,23.08
2023-05-24T19:14:55.676Z,23.06
2023-05-24T19:19:58.548Z,23.01
2023-05-24T19:25:01.400Z,22.98
2023-05-24T19:30:06.836Z,22.95
2023-05-24T19:35:12.092Z,22.93
2023-05-24T19:40:15.186Z,22.96
2023-05-24T19:45:19.749Z,22.96
2023-05-24T19:50:22.981Z,22.91
2023-05-24T19:55:25.957Z,22.91
2023-05-24T20:00:34.603Z,22.87
2023-05-24T20:05:38.027Z,22.86
2023-05-24T20:10:41.534Z,22.85
2023-05-24T20:15:45.890Z,22.84
2023-05-24T20:20:48.780Z,22.83
2023-05-24T20:25:51.657Z,22.79
2023-05-24T20:30:55.870Z,22.79
2023-05-24T20:35:59.217Z,22.78
2023-05-24T20:41:03.580Z,22.78
2023-05-24T20:46:07.846Z,22.78
2023-05-24T20:51:11.395Z,22.77
2023-05-24T20:56:17.854Z,22.76
2023-05-24T21:01:23.357Z,22.76
2023-05-24T21:06:26.431Z,22.75
2023-05-24T21:11:29.778Z,22.72
2023-05-24T21:16:34.414Z,22.73
2023-05-24T21:21:37.661Z,22.70
2023-05-24T21:26:40.734Z,22.67
2023-05-24T21:31:44.983Z,22.68
2023-05-24T21:36:47.831Z,22.71
2023-05-24T21:41:50.739Z,22.71
2023-05-24T21:46:55.694Z,22.71
2023-05-24T21:51:58.848Z,22.70
2023-05-24T21:57:01.881Z,22.67
2023-05-24T22:02:06.653Z,22.65
2023-05-24T22:07:09.452Z,22.61
2023-05-24T22:12:12.255Z,22.57
2023-05-24T22:17:17.220Z,22.49
2023-05-24T22:22:20.272Z,22.44
2023-05-24T22:27:23.482Z,22.40
2023-05-24T22:32:27.708Z,22.33
2023-05-24T22:37:30.569Z,22.29
2023-05-24T22:42:33.486Z,22.26
2023-05-24T22:47:39.895Z,22.18
2023-05-24T22:52:43.319Z,22.09
2023-05-24T22:57:46.288Z,22.01
2023-05-24T23:02:50.625Z,21.94
2023-05-24T23:07:54.972Z,21.96
2023-05-24T23:12:58.676Z,21.93
2023-05-24T23:18:05.597Z,21.89
2023-05-24T23:23:08.565Z,21.86
2023-05-24T23:28:11.360Z,21.83
2023-05-24T23:33:15.472Z,21.76
2023-05-24T23:38:18.382Z,21.75
2023-05-24T23:43:21.223Z,21.71
2023-05-24T23:48:25.495Z,21.65
2023-05-24T23:53:28.299Z,21.63
2023-05-24T23:58:31.969Z,21.63
